X  Fermer Données météorologiques d'aviation de Metar     EHGG Eelde Airport
Température
13°C Température
13°C Point de rosée
100% Humidité



Vitesse
10 KM/H
6 MPH
3 M/S
5 KTS



170°
Sud
Conditions actuelles

Brouillard Brouillard
Pression 1008.92 (hPa) - 29.79 (inHg)
Visibilité 1.9 (mile) - 3 (km)
Aéroport
Code de l'aéroport EHGG

Emplacement: Eelde Airport
Distance: 47 (km)

Metar:
EHGG 281655Z AUTO 17005KT 120V210 2700 BR OVC002 13/13 Q1009 NOSIG

Temps: 28-09-2020 18:55 CEST